createdAt,value
2022-10-12T00:01:10.658Z,98850.05
2022-10-12T00:03:38.866Z,98850.67
2022-10-12T00:06:15.170Z,98852.45
2022-10-12T00:08:45.171Z,98852.98
2022-10-12T00:11:17.243Z,98851.80
2022-10-12T00:13:45.175Z,98853.84
2022-10-12T00:16:14.960Z,98857.08
2022-10-12T00:18:43.218Z,98853.10
2022-10-12T00:21:16.712Z,98858.52
2022-10-12T00:23:45.661Z,98858.56
2022-10-12T00:26:23.380Z,98855.54
2022-10-12T00:28:59.882Z,98853.14
2022-10-12T00:31:29.827Z,98855.02
2022-10-12T00:34:01.613Z,98859.35
2022-10-12T00:36:32.693Z,98858.88
2022-10-12T00:39:01.456Z,98853.98
2022-10-12T00:41:33.302Z,98855.87
2022-10-12T00:44:01.406Z,98853.35
2022-10-12T00:46:35.234Z,98853.25
2022-10-12T00:49:20.885Z,98853.63
2022-10-12T00:51:53.721Z,98852.45
2022-10-12T00:54:27.319Z,98855.06
2022-10-12T00:56:56.898Z,98856.89
2022-10-12T00:59:32.611Z,98857.88
2022-10-12T01:02:00.565Z,98855.33
2022-10-12T01:04:31.716Z,98851.53
2022-10-12T01:07:00.288Z,98849.86
2022-10-12T01:09:29.734Z,98852.40
2022-10-12T01:11:58.673Z,98851.92
2022-10-12T01:14:26.660Z,98848.41
2022-10-12T01:17:00.204Z,98851.60
2022-10-12T01:20:09.030Z,98846.08
2022-10-12T01:23:04.501Z,98848.52
2022-10-12T01:25:53.205Z,98849.59
2022-10-12T01:28:51.909Z,98844.32
2022-10-12T01:31:49.840Z,98844.71
2022-10-12T01:34:42.615Z,98844.34
2022-10-12T01:37:38.844Z,98843.95
2022-10-12T01:40:16.502Z,98839.30
2022-10-12T01:42:45.087Z,98842.48
2022-10-12T01:45:17.229Z,98844.05
2022-10-12T01:47:55.014Z,98840.55
2022-10-12T01:50:32.104Z,98841.30
2022-10-12T01:53:23.045Z,98841.63
2022-10-12T01:56:39.067Z,98847.49
2022-10-12T01:59:12.845Z,98845.84
2022-10-12T02:01:48.918Z,98843.59
2022-10-12T02:04:44.478Z,98843.63
2022-10-12T02:07:26.785Z,98846.98
2022-10-12T02:09:59.233Z,98845.61
2022-10-12T02:12:30.792Z,98844.11
2022-10-12T02:15:03.741Z,98843.56
2022-10-12T02:17:33.910Z,98839.69
2022-10-12T02:20:04.016Z,98842.70
2022-10-12T02:22:37.381Z,98842.13
2022-10-12T02:25:11.139Z,98839.12
2022-10-12T02:27:43.262Z,98842.30
2022-10-12T02:30:12.127Z,98846.94
2022-10-12T02:33:03.725Z,98843.90
2022-10-12T02:35:41.925Z,98844.30
2022-10-12T02:38:20.689Z,98840.04
2022-10-12T02:40:57.773Z,98845.35
2022-10-12T02:43:35.115Z,98850.19
2022-10-12T02:46:05.869Z,98848.42
2022-10-12T02:48:35.494Z,98843.92
2022-10-12T02:51:04.024Z,98848.53
2022-10-12T02:53:32.015Z,98848.64
2022-10-12T02:56:03.753Z,98848.84
2022-10-12T02:58:32.100Z,98847.45
2022-10-12T03:01:00.059Z,98846.83
2022-10-12T03:03:28.212Z,98856.25
2022-10-12T03:05:56.512Z,98855.95
2022-10-12T03:08:24.378Z,98853.48
2022-10-12T03:10:52.243Z,98854.70
2022-10-12T03:13:20.093Z,98850.14
2022-10-12T03:15:47.920Z,98857.17
2022-10-12T03:18:15.790Z,98852.16
2022-10-12T03:20:48.195Z,98849.17
2022-10-12T03:23:16.041Z,98841.87
2022-10-12T03:25:43.885Z,98845.98
2022-10-12T03:28:12.139Z,98849.70
2022-10-12T03:30:40.292Z,98845.10
2022-10-12T03:33:08.174Z,98844.27
2022-10-12T03:35:36.043Z,98845.09
2022-10-12T03:38:04.306Z,98845.39
2022-10-12T03:40:32.160Z,98843.92
2022-10-12T03:43:00.062Z,98845.27
2022-10-12T03:45:27.910Z,98840.02
2022-10-12T03:47:56.009Z,98844.86
2022-10-12T03:50:23.840Z,98844.34
2022-10-12T03:52:51.656Z,98845.71
2022-10-12T03:55:19.808Z,98843.87
2022-10-12T03:57:47.609Z,98846.21
2022-10-12T04:00:15.776Z,98848.63
2022-10-12T04:02:43.682Z,98853.23
2022-10-12T04:05:11.636Z,98857.36
2022-10-12T04:07:39.877Z,98858.77
2022-10-12T04:10:08.238Z,98856.99
2022-10-12T04:12:36.119Z,98856.89
2022-10-12T04:15:04.629Z,98854.67
2022-10-12T04:17:32.572Z,98858.79
2022-10-12T04:20:00.375Z,98857.66
2022-10-12T04:22:28.242Z,98856.05
2022-10-12T04:24:56.042Z,98855.91
2022-10-12T04:27:23.859Z,98854.70
2022-10-12T04:29:51.745Z,98853.79
2022-10-12T04:32:19.561Z,98850.61
2022-10-12T04:34:47.382Z,98851.30
2022-10-12T04:37:15.270Z,98854.30
2022-10-12T04:39:43.143Z,98850.63
2022-10-12T04:42:10.983Z,98856.74
2022-10-12T04:44:38.780Z,98855.45
2022-10-12T04:47:07.146Z,98857.21
2022-10-12T04:49:35.029Z,98854.23
2022-10-12T04:52:02.998Z,98857.91
2022-10-12T04:54:32.876Z,98854.95
2022-10-12T04:57:00.943Z,98855.75
2022-10-12T04:59:28.860Z,98855.98
2022-10-12T05:01:56.747Z,98859.14
2022-10-12T05:04:24.746Z,98857.11
2022-10-12T05:06:52.650Z,98863.48
2022-10-12T05:09:20.522Z,98867.91
2022-10-12T05:11:48.457Z,98871.40
2022-10-12T05:14:16.264Z,98871.52
2022-10-12T05:16:44.117Z,98875.33
2022-10-12T05:19:11.946Z,98878.54
2022-10-12T05:21:40.485Z,98875.71
2022-10-12T05:24:08.451Z,98879.10
2022-10-12T05:26:36.561Z,98881.89
2022-10-12T05:29:04.451Z,98879.95
2022-10-12T05:31:32.256Z,98883.64
2022-10-12T05:34:00.241Z,98881.48
2022-10-12T05:36:28.189Z,98884.26
2022-10-12T05:38:56.065Z,98882.10
2022-10-12T05:41:23.937Z,98882.83
2022-10-12T05:43:53.325Z,98882.34
2022-10-12T05:46:21.700Z,98885.91
2022-10-12T05:48:49.522Z,98876.41
2022-10-12T05:51:17.349Z,98879.34
2022-10-12T05:53:45.359Z,98880.83
2022-10-12T05:56:13.242Z,98882.64
2022-10-12T05:58:41.193Z,98883.39
2022-10-12T06:01:14.177Z,98882.79
2022-10-12T06:03:42.336Z,98883.84
2022-10-12T06:06:10.303Z,98888.38
2022-10-12T06:08:38.174Z,98889.48
2022-10-12T06:11:06.165Z,98894.77
2022-10-12T06:13:34.044Z,98889.32
2022-10-12T06:16:01.919Z,98894.04
2022-10-12T06:18:29.891Z,98891.16
2022-10-12T06:21:58.924Z,98893.97
2022-10-12T06:23:45.589Z,98895.45
2022-10-12T06:26:16.552Z,98895.94
2022-10-12T06:28:44.478Z,98896.70
2022-10-12T06:31:12.709Z,98894.25
2022-10-12T06:33:40.728Z,98900.95
2022-10-12T06:36:08.575Z,98900.17
2022-10-12T06:38:36.522Z,98899.52
2022-10-12T06:41:04.418Z,98898.96
2022-10-12T06:43:32.278Z,98899.02
2022-10-12T06:46:27.754Z,98897.98
2022-10-12T06:48:55.651Z,98898.16
2022-10-12T06:51:23.936Z,98899.77
2022-10-12T06:53:55.422Z,98899.57
2022-10-12T06:56:23.513Z,98899.91
2022-10-12T06:58:55.938Z,98900.42
2022-10-12T07:01:24.025Z,98898.66
2022-10-12T07:04:00.724Z,98899.39
2022-10-12T07:06:28.894Z,98901.50
2022-10-12T07:09:01.257Z,98904.42
2022-10-12T07:11:29.152Z,98902.88
2022-10-12T07:13:58.143Z,98908.23
2022-10-12T07:16:26.033Z,98906.69
2022-10-12T07:18:54.051Z,98905.98
2022-10-12T07:21:21.959Z,98906.52
2022-10-12T07:23:49.789Z,98904.04
2022-10-12T07:26:17.931Z,98899.94
2022-10-12T07:28:45.898Z,98899.34
2022-10-12T07:31:14.063Z,98897.92
2022-10-12T07:33:41.981Z,98900.45
2022-10-12T07:36:14.745Z,98898.98
2022-10-12T07:38:47.209Z,98900.41
2022-10-12T07:41:15.645Z,98896.20
2022-10-12T07:43:43.759Z,98890.91
2022-10-12T07:46:12.502Z,98898.06
2022-10-12T07:48:47.221Z,98895.59
2022-10-12T07:51:17.474Z,98895.61
2022-10-12T07:53:45.677Z,98894.56
2022-10-12T07:56:17.362Z,98888.02
2022-10-12T07:58:50.128Z,98889.86
2022-10-12T08:01:19.958Z,98887.77
2022-10-12T08:03:50.743Z,98883.17
2022-10-12T08:06:24.225Z,98886.85
2022-10-12T08:08:52.254Z,98885.48
2022-10-12T08:11:20.999Z,98887.73
2022-10-12T08:13:48.823Z,98885.31
2022-10-12T08:16:19.371Z,98883.63
2022-10-12T08:18:47.328Z,98881.20
2022-10-12T08:21:17.098Z,98880.38
2022-10-12T08:23:45.290Z,98883.75
2022-10-12T08:26:14.747Z,98882.59
2022-10-12T08:28:43.321Z,98880.56
2022-10-12T08:31:13.921Z,98879.70
2022-10-12T08:33:41.888Z,98881.74
2022-10-12T08:36:11.662Z,98881.30
2022-10-12T08:38:39.672Z,98885.31
2022-10-12T08:41:23.404Z,98887.18
2022-10-12T08:44:06.434Z,98886.86
2022-10-12T08:46:34.421Z,98885.64
2022-10-12T08:49:29.510Z,98885.83
2022-10-12T08:51:59.535Z,98887.89
2022-10-12T08:54:31.587Z,98889.25
2022-10-12T08:57:00.099Z,98895.14
2022-10-12T08:59:29.661Z,98896.02
2022-10-12T09:02:14.035Z,98894.23
2022-10-12T09:04:56.714Z,98889.35
2022-10-12T09:07:50.829Z,98891.86
2022-10-12T09:10:46.303Z,98897.35
2022-10-12T09:13:39.994Z,98896.14
2022-10-12T09:16:24.028Z,98889.55
2022-10-12T09:18:55.180Z,98891.00
2022-10-12T09:21:26.182Z,98890.74
2022-10-12T09:23:56.796Z,98884.17
2022-10-12T09:26:36.750Z,98883.24
2022-10-12T09:29:27.096Z,98881.50
2022-10-12T09:32:16.143Z,98879.01
2022-10-12T09:34:46.046Z,98881.21
2022-10-12T09:37:23.360Z,98881.85
2022-10-12T09:39:51.471Z,98882.05
2022-10-12T09:42:19.319Z,98877.62
2022-10-12T09:45:12.493Z,98882.91
2022-10-12T09:47:40.606Z,98882.40
2022-10-12T09:50:08.745Z,98885.20
2022-10-12T09:52:36.684Z,98885.00
2022-10-12T09:55:17.087Z,98883.80
2022-10-12T09:57:54.687Z,98887.20
2022-10-12T10:00:32.571Z,98885.77
2022-10-12T10:03:02.451Z,98882.38
2022-10-12T10:05:30.481Z,98882.20
2022-10-12T10:08:20.941Z,98873.60
2022-10-12T10:10:50.977Z,98870.19
2022-10-12T10:13:20.046Z,98868.45
2022-10-12T10:15:51.038Z,98867.37
2022-10-12T10:18:25.732Z,98867.34
2022-10-12T10:20:56.111Z,98865.90
2022-10-12T10:23:29.137Z,98868.36
2022-10-12T10:25:58.422Z,98865.59
2022-10-12T10:28:30.421Z,98870.19
2022-10-12T10:31:03.151Z,98868.51
2022-10-12T10:33:33.384Z,98866.31
2022-10-12T10:36:13.793Z,98868.64
2022-10-12T10:38:56.149Z,98861.52
2022-10-12T10:41:28.736Z,98864.70
2022-10-12T10:43:56.595Z,98865.33
2022-10-12T10:46:28.220Z,98863.10
2022-10-12T10:49:06.352Z,98859.09
2022-10-12T10:51:49.556Z,98864.33
2022-10-12T10:54:23.081Z,98863.21
2022-10-12T10:57:02.315Z,98863.77
2022-10-12T11:00:19.457Z,98861.34
2022-10-12T11:02:51.148Z,98859.21
2022-10-12T11:05:28.245Z,98853.90
2022-10-12T11:08:06.800Z,98854.04
2022-10-12T11:10:45.066Z,98854.16
2022-10-12T11:13:20.020Z,98852.53
2022-10-12T11:16:07.945Z,98851.13
2022-10-12T11:18:42.517Z,98849.40
2022-10-12T11:21:22.654Z,98849.70
2022-10-12T11:24:05.307Z,98851.40
2022-10-12T11:26:57.026Z,98846.62
2022-10-12T11:29:24.904Z,98844.89
2022-10-12T11:31:59.552Z,98844.61
2022-10-12T11:34:32.496Z,98844.70
2022-10-12T11:37:19.908Z,98840.98
2022-10-12T11:39:54.521Z,98835.97
2022-10-12T11:42:32.325Z,98834.65
2022-10-12T11:45:06.106Z,98831.64
2022-10-12T11:47:39.365Z,98831.71
2022-10-12T11:50:25.423Z,98829.88
2022-10-12T11:52:55.589Z,98825.00
2022-10-12T11:55:29.220Z,98825.09
2022-10-12T11:58:07.442Z,98819.95
2022-10-12T12:00:53.514Z,98825.39
2022-10-12T12:03:31.750Z,98825.95
2022-10-12T12:06:29.137Z,98824.61
2022-10-12T12:09:01.090Z,98820.77
2022-10-12T12:11:31.877Z,98822.95
2022-10-12T12:14:21.636Z,98821.77
2022-10-12T12:16:49.851Z,98822.50
2022-10-12T12:19:36.386Z,98821.68
2022-10-12T12:22:28.909Z,98826.17
2022-10-12T12:25:10.765Z,98823.23
2022-10-12T12:27:42.188Z,98819.17
2022-10-12T12:30:19.190Z,98816.00
2022-10-12T12:33:38.574Z,98815.45
2022-10-12T12:36:09.048Z,98812.91
2022-10-12T12:38:45.817Z,98812.94
2022-10-12T12:41:21.914Z,98812.02
2022-10-12T12:43:58.609Z,98811.78
2022-10-12T12:46:52.335Z,98813.06
2022-10-12T12:49:38.290Z,98810.15
2022-10-12T12:52:16.723Z,98812.21
2022-10-12T12:55:00.591Z,98804.55
2022-10-12T12:58:16.336Z,98805.05
2022-10-12T13:01:02.201Z,98801.35
2022-10-12T13:03:41.851Z,98802.33
2022-10-12T13:06:29.306Z,98796.94
2022-10-12T13:09:06.064Z,98795.27
2022-10-12T13:12:11.020Z,98789.95
2022-10-12T13:14:51.138Z,98789.42
2022-10-12T13:17:34.315Z,98787.54
2022-10-12T13:20:15.868Z,98783.87
2022-10-12T13:22:46.933Z,98790.55
2022-10-12T13:25:25.702Z,98784.13
2022-10-12T13:27:55.125Z,98783.33
2022-10-12T13:30:51.554Z,98786.71
2022-10-12T13:33:32.091Z,98785.70
2022-10-12T13:36:08.742Z,98783.91
2022-10-12T13:38:39.171Z,98779.40
2022-10-12T13:41:14.720Z,98780.49
2022-10-12T13:43:51.304Z,98777.16
2022-10-12T13:46:41.035Z,98775.69
2022-10-12T13:49:41.964Z,98772.00
2022-10-12T13:52:12.533Z,98769.20
2022-10-12T13:54:47.440Z,98762.10
2022-10-12T13:57:40.776Z,98768.05
2022-10-12T14:00:19.612Z,98771.56
2022-10-12T14:03:02.207Z,98772.77
2022-10-12T14:05:32.348Z,98769.58
2022-10-12T14:08:11.580Z,98770.11
2022-10-12T14:10:41.390Z,98769.33
2022-10-12T14:13:15.223Z,98771.11
2022-10-12T14:15:43.576Z,98770.73
2022-10-12T14:18:40.668Z,98766.40
2022-10-12T14:21:11.837Z,98766.13
2022-10-12T14:23:45.609Z,98765.80
2022-10-12T14:26:43.701Z,98768.51
2022-10-12T14:29:33.334Z,98767.60
2022-10-12T14:32:04.835Z,98767.27
2022-10-12T14:34:36.829Z,98764.15
2022-10-12T14:37:13.402Z,98759.96
2022-10-12T14:39:42.944Z,98754.79
2022-10-12T14:42:31.190Z,98756.02
2022-10-12T14:44:59.748Z,98756.74
2022-10-12T14:47:32.019Z,98754.60
2022-10-12T14:50:01.495Z,98753.78
2022-10-12T14:52:47.261Z,98753.30
2022-10-12T14:55:16.491Z,98751.50
2022-10-12T14:57:44.939Z,98745.64
2022-10-12T15:00:18.365Z,98746.77
2022-10-12T15:02:47.033Z,98747.46
2022-10-12T15:05:17.734Z,98745.56
2022-10-12T15:07:47.011Z,98746.84
2022-10-12T15:10:16.112Z,98748.75
2022-10-12T15:12:44.389Z,98750.55
2022-10-12T15:15:29.067Z,98752.93
2022-10-12T15:17:58.222Z,98755.22
2022-10-12T15:20:27.393Z,98755.86
2022-10-12T15:22:55.987Z,98757.04
2022-10-12T15:25:46.120Z,98756.22
2022-10-12T15:28:14.201Z,98758.84
2022-10-12T15:31:04.170Z,98763.04
2022-10-12T15:33:30.957Z,98765.34
2022-10-12T15:35:58.789Z,98764.11
2022-10-12T15:38:26.577Z,98765.35
2022-10-12T15:40:58.039Z,98761.68
2022-10-12T15:43:26.121Z,98762.03
2022-10-12T15:45:56.573Z,98762.98
2022-10-12T15:48:24.546Z,98763.16
2022-10-12T15:50:52.437Z,98766.89
2022-10-12T15:53:24.424Z,98768.05
2022-10-12T15:55:53.948Z,98768.59
2022-10-12T15:58:22.232Z,98768.38
2022-10-12T16:00:50.502Z,98770.17
2022-10-12T16:03:25.653Z,98774.28
2022-10-12T16:05:54.686Z,98771.48
2022-10-12T16:08:23.512Z,98781.81
2022-10-12T16:10:51.706Z,98782.66
2022-10-12T16:13:19.518Z,98783.59
2022-10-12T16:15:47.438Z,98779.89
2022-10-12T16:18:15.971Z,98780.42
2022-10-12T16:20:47.568Z,98779.92
2022-10-12T16:23:22.778Z,98780.38
2022-10-12T16:25:51.107Z,98778.73
2022-10-12T16:28:19.030Z,98777.98
2022-10-12T16:30:46.919Z,98774.20
2022-10-12T16:33:14.794Z,98773.42
2022-10-12T16:35:42.702Z,98771.29
2022-10-12T16:38:11.411Z,98768.96
2022-10-12T16:40:40.102Z,98768.05
2022-10-12T16:43:08.902Z,98772.44
2022-10-12T16:45:36.827Z,98772.78
2022-10-12T16:48:05.163Z,98778.46
2022-10-12T16:50:33.059Z,98777.18
2022-10-12T16:53:00.928Z,98780.69
2022-10-12T16:55:28.830Z,98778.61
2022-10-12T16:57:56.987Z,98780.70
2022-10-12T17:00:25.385Z,98780.84
2022-10-12T17:02:57.240Z,98781.23
2022-10-12T17:05:25.616Z,98784.78
2022-10-12T17:07:53.484Z,98783.39
2022-10-12T17:10:21.318Z,98781.04
2022-10-12T17:12:49.175Z,98783.67
2022-10-12T17:15:17.246Z,98781.56
2022-10-12T17:17:45.117Z,98782.23
2022-10-12T17:20:12.953Z,98778.92
2022-10-12T17:22:40.827Z,98780.66
2022-10-12T17:25:09.474Z,98775.48
2022-10-12T17:27:37.620Z,98780.48
2022-10-12T17:30:05.834Z,98777.23
2022-10-12T17:32:37.813Z,98775.86
2022-10-12T17:35:06.034Z,98775.71
2022-10-12T17:37:34.070Z,98777.55
2022-10-12T17:40:02.938Z,98778.23
2022-10-12T17:42:30.944Z,98780.70
2022-10-12T17:44:58.863Z,98784.85
2022-10-12T17:47:26.771Z,98784.19
2022-10-12T17:49:54.603Z,98784.30
2022-10-12T17:52:22.420Z,98780.06
2022-10-12T17:54:50.301Z,98778.83
2022-10-12T17:57:18.588Z,98775.58
2022-10-12T17:59:46.672Z,98774.23
2022-10-12T18:02:14.477Z,98774.65
2022-10-12T18:04:42.366Z,98775.95
2022-10-12T18:07:11.030Z,98773.05
2022-10-12T18:09:39.015Z,98774.30
2022-10-12T18:12:06.971Z,98774.14
2022-10-12T18:14:34.946Z,98776.62
2022-10-12T18:17:02.804Z,98770.84
2022-10-12T18:19:30.663Z,98770.84
2022-10-12T18:21:58.507Z,98768.55
2022-10-12T18:24:26.497Z,98763.34
2022-10-12T18:26:54.275Z,98766.59
2022-10-12T18:29:22.676Z,98767.92
2022-10-12T18:31:50.510Z,98763.05
2022-10-12T18:34:18.395Z,98762.27
2022-10-12T18:36:46.290Z,98760.95
2022-10-12T18:39:14.346Z,98756.44
2022-10-12T18:41:42.258Z,98736.45
2022-10-12T18:44:11.141Z,98755.98
2022-10-12T18:46:39.745Z,98760.02
2022-10-12T18:49:10.304Z,98756.89
2022-10-12T18:51:41.325Z,98757.06
2022-10-12T18:54:13.118Z,98755.17
2022-10-12T18:56:41.848Z,98753.45
2022-10-12T18:59:11.612Z,98755.77
2022-10-12T19:01:39.426Z,98755.51
2022-10-12T19:04:08.182Z,98754.77
2022-10-12T19:06:39.300Z,98753.06
2022-10-12T19:09:07.463Z,98751.82
2022-10-12T19:11:36.822Z,98755.42
2022-10-12T19:14:13.713Z,98755.09
2022-10-12T19:16:42.857Z,98755.84
2022-10-12T19:19:19.657Z,98754.84
2022-10-12T19:21:50.328Z,98754.40
2022-10-12T19:24:19.234Z,98755.71
2022-10-12T19:26:48.132Z,98754.45
2022-10-12T19:29:16.231Z,98754.98
2022-10-12T19:31:47.243Z,98757.70
2022-10-12T19:34:18.169Z,98760.09
2022-10-12T19:36:46.845Z,98762.05
2022-10-12T19:39:24.347Z,98759.09
2022-10-12T19:41:53.255Z,98759.69
2022-10-12T19:44:21.438Z,98759.37
2022-10-12T19:46:51.551Z,98759.23
2022-10-12T19:49:19.793Z,98757.59
2022-10-12T19:51:47.670Z,98756.80
2022-10-12T19:54:16.262Z,98757.64
2022-10-12T19:56:44.449Z,98761.41
2022-10-12T19:59:12.947Z,98762.31
2022-10-12T20:01:40.800Z,98760.00
2022-10-12T20:04:11.961Z,98758.98
2022-10-12T20:06:40.718Z,98757.36
2022-10-12T20:09:09.948Z,98754.10
2022-10-12T20:11:38.746Z,98753.73
2022-10-12T20:14:07.182Z,98753.64
2022-10-12T20:16:37.237Z,98755.36
2022-10-12T20:19:07.367Z,98760.11
2022-10-12T20:21:36.766Z,98757.72
2022-10-12T20:24:07.876Z,98758.88
2022-10-12T20:26:35.934Z,98758.85
2022-10-12T20:29:04.002Z,98763.36
2022-10-12T20:31:31.833Z,98765.24
2022-10-12T20:34:00.044Z,98764.23
2022-10-12T20:36:30.371Z,98768.34
2022-10-12T20:38:59.842Z,98762.70
2022-10-12T20:41:28.917Z,98762.88
2022-10-12T20:43:58.431Z,98764.10
2022-10-12T20:46:27.730Z,98764.45
2022-10-12T20:48:58.930Z,98767.88
2022-10-12T20:51:34.503Z,98768.79
2022-10-12T20:54:05.280Z,98769.31
2022-10-12T20:56:33.650Z,98767.48
2022-10-12T20:59:01.852Z,98769.95
2022-10-12T21:01:29.899Z,98762.35
2022-10-12T21:03:58.087Z,98762.05
2022-10-12T21:06:26.420Z,98759.67
2022-10-12T21:08:56.418Z,98759.86
2022-10-12T21:11:25.978Z,98753.54
2022-10-12T21:13:54.713Z,98751.69
2022-10-12T21:16:22.687Z,98752.80
2022-10-12T21:18:54.341Z,98749.02
2022-10-12T21:21:23.709Z,98748.46
2022-10-12T21:23:57.975Z,98748.98
2022-10-12T21:26:29.467Z,98749.91
2022-10-12T21:29:00.582Z,98747.02
2022-10-12T21:31:32.423Z,98749.65
2022-10-12T21:34:03.369Z,98747.58
2022-10-12T21:36:33.412Z,98747.64
2022-10-12T21:39:01.308Z,98749.35
2022-10-12T21:41:30.723Z,98747.48
2022-10-12T21:43:59.103Z,98746.40
2022-10-12T21:46:29.426Z,98748.17
2022-10-12T21:48:57.760Z,98750.97
2022-10-12T21:51:27.099Z,98752.86
2022-10-12T21:53:55.422Z,98754.66
2022-10-12T21:56:33.363Z,98754.92
2022-10-12T21:59:02.850Z,98750.85
2022-10-12T22:01:36.458Z,98749.20
2022-10-12T22:04:07.397Z,98743.20
2022-10-12T22:06:35.278Z,98742.87
2022-10-12T22:09:11.568Z,98742.97
2022-10-12T22:11:39.523Z,98739.27
2022-10-12T22:14:13.475Z,98739.86
2022-10-12T22:16:43.346Z,98735.41
2022-10-12T22:19:15.301Z,98738.25
2022-10-12T22:21:43.094Z,98737.41
2022-10-12T22:24:10.933Z,98736.20
2022-10-12T22:26:38.958Z,98736.73
2022-10-12T22:29:08.714Z,98731.84
2022-10-12T22:31:41.172Z,98734.67
2022-10-12T22:34:11.586Z,98733.75
2022-10-12T22:36:39.544Z,98733.27
2022-10-12T22:39:07.647Z,98731.16
2022-10-12T22:41:35.555Z,98732.32
2022-10-12T22:44:03.492Z,98731.05
2022-10-12T22:46:31.448Z,98728.21
2022-10-12T22:48:59.318Z,98729.63
2022-10-12T22:51:32.804Z,98727.29
2022-10-12T22:54:01.345Z,98728.27
2022-10-12T22:56:29.261Z,98729.19
2022-10-12T22:58:59.206Z,98730.73
2022-10-12T23:01:27.971Z,98728.94
2022-10-12T23:03:56.534Z,98727.98
2022-10-12T23:06:24.939Z,98725.95
2022-10-12T23:08:52.799Z,98717.89
2022-10-12T23:11:24.211Z,98722.98
2022-10-12T23:13:53.287Z,98725.98
2022-10-12T23:16:26.547Z,98721.16
2022-10-12T23:18:59.877Z,98717.64
2022-10-12T23:21:29.539Z,98719.67
2022-10-12T23:23:59.559Z,98717.09
2022-10-12T23:26:28.687Z,98713.08
2022-10-12T23:28:57.003Z,98713.72
2022-10-12T23:31:28.401Z,98710.65
2022-10-12T23:34:04.778Z,98714.77
2022-10-12T23:36:34.913Z,98709.77
2022-10-12T23:39:04.834Z,98712.38
2022-10-12T23:41:33.076Z,98712.33
2022-10-12T23:44:01.006Z,98714.42
2022-10-12T23:46:29.045Z,98713.89
2022-10-12T23:48:58.632Z,98716.61
2022-10-12T23:51:26.477Z,98716.00
2022-10-12T23:53:54.284Z,98713.64
2022-10-12T23:56:22.443Z,98712.23
2022-10-12T23:58:50.265Z,98713.80
